sensor_id;sensor_type;location;lat;lon;timestamp;temperature;humidity
59301;DHT22;45073;52.740;6.784;2023-04-08T00:01:07;7.00;98.30
59301;DHT22;45073;52.740;6.784;2023-04-08T00:03:33;6.90;98.60
59301;DHT22;45073;52.740;6.784;2023-04-08T00:05:59;6.90;98.80
59301;DHT22;45073;52.740;6.784;2023-04-08T00:08:27;6.90;99.00
59301;DHT22;45073;52.740;6.784;2023-04-08T00:10:52;6.80;99.40
59301;DHT22;45073;52.740;6.784;2023-04-08T00:13:18;6.80;99.70
59301;DHT22;45073;52.740;6.784;2023-04-08T00:15:44;6.70;99.90
59301;DHT22;45073;52.740;6.784;2023-04-08T00:18:10;6.70;99.90
59301;DHT22;45073;52.740;6.784;2023-04-08T00:20:36;6.60;99.90
59301;DHT22;45073;52.740;6.784;2023-04-08T00:23:01;6.60;99.90
59301;DHT22;45073;52.740;6.784;2023-04-08T00:25:27;6.60;99.90
59301;DHT22;45073;52.740;6.784;2023-04-08T00:27:52;6.60;99.90
59301;DHT22;45073;52.740;6.784;2023-04-08T00:30:18;6.60;99.90
59301;DHT22;45073;52.740;6.784;2023-04-08T00:32:44;6.60;99.90
59301;DHT22;45073;52.740;6.784;2023-04-08T00:35:10;6.60;99.90
59301;DHT22;45073;52.740;6.784;2023-04-08T00:37:37;6.50;99.90
59301;DHT22;45073;52.740;6.784;2023-04-08T00:40:03;6.60;99.90
59301;DHT22;45073;52.740;6.784;2023-04-08T00:42:29;6.50;99.90
59301;DHT22;45073;52.740;6.784;2023-04-08T00:44:55;6.50;99.90
59301;DHT22;45073;52.740;6.784;2023-04-08T00:47:21;6.50;99.90
59301;DHT22;45073;52.740;6.784;2023-04-08T00:49:47;6.50;99.90
59301;DHT22;45073;52.740;6.784;2023-04-08T00:52:12;6.40;99.90
59301;DHT22;45073;52.740;6.784;2023-04-08T00:54:38;6.40;99.90
59301;DHT22;45073;52.740;6.784;2023-04-08T00:57:05;6.30;99.90
59301;DHT22;45073;52.740;6.784;2023-04-08T00:59:32;6.20;99.90
59301;DHT22;45073;52.740;6.784;2023-04-08T01:02:18;6.20;99.90
59301;DHT22;45073;52.740;6.784;2023-04-08T01:04:57;6.10;99.90
59301;DHT22;45073;52.740;6.784;2023-04-08T01:09:56;6.00;99.90
59301;DHT22;45073;52.740;6.784;2023-04-08T01:12:28;6.00;99.90
59301;DHT22;45073;52.740;6.784;2023-04-08T01:15:05;6.00;99.90
59301;DHT22;45073;52.740;6.784;2023-04-08T01:17:33;6.00;99.90
59301;DHT22;45073;52.740;6.784;2023-04-08T01:20:00;6.00;99.90
59301;DHT22;45073;52.740;6.784;2023-04-08T01:25:15;6.00;99.90
59301;DHT22;45073;52.740;6.784;2023-04-08T01:27:42;6.00;99.90
59301;DHT22;45073;52.740;6.784;2023-04-08T01:30:08;5.90;99.90
59301;DHT22;45073;52.740;6.784;2023-04-08T01:32:35;5.90;99.90
59301;DHT22;45073;52.740;6.784;2023-04-08T01:35:02;5.90;99.90
59301;DHT22;45073;52.740;6.784;2023-04-08T01:37:29;5.90;99.90
59301;DHT22;45073;52.740;6.784;2023-04-08T01:39:55;5.90;99.90
59301;DHT22;45073;52.740;6.784;2023-04-08T01:42:23;5.90;99.90
59301;DHT22;45073;52.740;6.784;2023-04-08T01:44:51;5.80;99.90
59301;DHT22;45073;52.740;6.784;2023-04-08T01:47:19;5.80;99.90
59301;DHT22;45073;52.740;6.784;2023-04-08T01:49:45;5.80;99.90
59301;DHT22;45073;52.740;6.784;2023-04-08T01:52:11;5.80;99.90
59301;DHT22;45073;52.740;6.784;2023-04-08T01:54:37;5.70;99.90
59301;DHT22;45073;52.740;6.784;2023-04-08T01:57:04;5.70;99.90
59301;DHT22;45073;52.740;6.784;2023-04-08T01:59:34;5.60;99.90
59301;DHT22;45073;52.740;6.784;2023-04-08T02:02:03;5.50;99.90
59301;DHT22;45073;52.740;6.784;2023-04-08T02:04:29;5.50;99.90
59301;DHT22;45073;52.740;6.784;2023-04-08T02:06:56;5.40;99.90
59301;DHT22;45073;52.740;6.784;2023-04-08T02:09:24;5.30;99.90
59301;DHT22;45073;52.740;6.784;2023-04-08T02:11:49;5.30;99.90
59301;DHT22;45073;52.740;6.784;2023-04-08T02:14:15;5.20;99.90
59301;DHT22;45073;52.740;6.784;2023-04-08T02:16:55;5.20;99.90
59301;DHT22;45073;52.740;6.784;2023-04-08T02:19:33;5.20;99.90
59301;DHT22;45073;52.740;6.784;2023-04-08T02:22:16;5.20;99.90
59301;DHT22;45073;52.740;6.784;2023-04-08T02:24:43;5.20;99.90
59301;DHT22;45073;52.740;6.784;2023-04-08T02:27:10;5.10;99.90
59301;DHT22;45073;52.740;6.784;2023-04-08T02:29:37;5.10;99.90
59301;DHT22;45073;52.740;6.784;2023-04-08T02:32:05;5.10;99.90
59301;DHT22;45073;52.740;6.784;2023-04-08T02:34:31;5.10;99.90
59301;DHT22;45073;52.740;6.784;2023-04-08T02:36:57;5.00;99.90
59301;DHT22;45073;52.740;6.784;2023-04-08T02:39:33;5.00;99.90
59301;DHT22;45073;52.740;6.784;2023-04-08T02:41:59;5.00;99.90
59301;DHT22;45073;52.740;6.784;2023-04-08T02:44:24;4.90;99.90
59301;DHT22;45073;52.740;6.784;2023-04-08T02:46:50;4.90;99.90
59301;DHT22;45073;52.740;6.784;2023-04-08T02:49:15;4.90;99.90
59301;DHT22;45073;52.740;6.784;2023-04-08T02:51:41;4.90;99.90
59301;DHT22;45073;52.740;6.784;2023-04-08T02:54:07;4.80;99.90
59301;DHT22;45073;52.740;6.784;2023-04-08T02:56:32;4.80;99.90
59301;DHT22;45073;52.740;6.784;2023-04-08T02:58:58;4.80;99.90
59301;DHT22;45073;52.740;6.784;2023-04-08T03:01:24;4.80;99.90
59301;DHT22;45073;52.740;6.784;2023-04-08T03:03:49;4.80;99.90
59301;DHT22;45073;52.740;6.784;2023-04-08T03:06:15;4.80;99.90
59301;DHT22;45073;52.740;6.784;2023-04-08T03:08:41;4.80;99.90
59301;DHT22;45073;52.740;6.784;2023-04-08T03:11:06;4.80;99.90
59301;DHT22;45073;52.740;6.784;2023-04-08T03:13:32;4.80;99.90
59301;DHT22;45073;52.740;6.784;2023-04-08T03:15:58;4.70;99.90
59301;DHT22;45073;52.740;6.784;2023-04-08T03:18:24;4.70;99.90
59301;DHT22;45073;52.740;6.784;2023-04-08T03:20:50;4.60;99.90
59301;DHT22;45073;52.740;6.784;2023-04-08T03:23:16;4.60;99.90
59301;DHT22;45073;52.740;6.784;2023-04-08T03:25:41;4.60;99.90
59301;DHT22;45073;52.740;6.784;2023-04-08T03:28:07;4.60;99.90
59301;DHT22;45073;52.740;6.784;2023-04-08T03:30:32;4.60;99.90
59301;DHT22;45073;52.740;6.784;2023-04-08T03:32:58;4.60;99.90
59301;DHT22;45073;52.740;6.784;2023-04-08T03:35:24;4.50;99.90
59301;DHT22;45073;52.740;6.784;2023-04-08T03:37:49;4.50;99.90
59301;DHT22;45073;52.740;6.784;2023-04-08T03:40:15;4.50;99.90
59301;DHT22;45073;52.740;6.784;2023-04-08T03:42:41;4.40;99.90
59301;DHT22;45073;52.740;6.784;2023-04-08T03:45:07;4.40;99.90
59301;DHT22;45073;52.740;6.784;2023-04-08T03:47:33;4.40;99.90
59301;DHT22;45073;52.740;6.784;2023-04-08T03:49:58;4.40;99.90
59301;DHT22;45073;52.740;6.784;2023-04-08T03:52:24;4.40;99.90
59301;DHT22;45073;52.740;6.784;2023-04-08T03:54:50;4.30;99.90
59301;DHT22;45073;52.740;6.784;2023-04-08T03:57:15;4.30;99.90
59301;DHT22;45073;52.740;6.784;2023-04-08T03:59:41;4.30;99.90
59301;DHT22;45073;52.740;6.784;2023-04-08T04:02:07;4.20;99.90
59301;DHT22;45073;52.740;6.784;2023-04-08T04:04:33;4.20;99.90
59301;DHT22;45073;52.740;6.784;2023-04-08T04:07:00;4.10;99.90
59301;DHT22;45073;52.740;6.784;2023-04-08T04:09:25;4.10;99.90
59301;DHT22;45073;52.740;6.784;2023-04-08T04:11:51;4.10;99.90
59301;DHT22;45073;52.740;6.784;2023-04-08T04:14:17;4.10;99.90
59301;DHT22;45073;52.740;6.784;2023-04-08T04:16:42;4.10;99.90
59301;DHT22;45073;52.740;6.784;2023-04-08T04:19:08;4.10;99.90
59301;DHT22;45073;52.740;6.784;2023-04-08T04:21:34;4.20;99.90
59301;DHT22;45073;52.740;6.784;2023-04-08T04:23:59;4.20;99.90
59301;DHT22;45073;52.740;6.784;2023-04-08T04:26:25;4.30;99.90
59301;DHT22;45073;52.740;6.784;2023-04-08T04:28:51;4.30;99.90
59301;DHT22;45073;52.740;6.784;2023-04-08T04:31:21;4.30;99.90
59301;DHT22;45073;52.740;6.784;2023-04-08T04:33:47;4.40;99.90
59301;DHT22;45073;52.740;6.784;2023-04-08T04:36:14;4.30;99.90
59301;DHT22;45073;52.740;6.784;2023-04-08T04:38:40;4.30;99.90
59301;DHT22;45073;52.740;6.784;2023-04-08T04:41:07;4.30;99.90
59301;DHT22;45073;52.740;6.784;2023-04-08T04:43:32;4.40;99.90
59301;DHT22;45073;52.740;6.784;2023-04-08T04:45:58;4.30;99.90
59301;DHT22;45073;52.740;6.784;2023-04-08T04:48:25;4.30;99.90
59301;DHT22;45073;52.740;6.784;2023-04-08T04:50:58;4.30;99.90
59301;DHT22;45073;52.740;6.784;2023-04-08T04:53:24;4.30;99.90
59301;DHT22;45073;52.740;6.784;2023-04-08T04:55:50;4.30;99.90
59301;DHT22;45073;52.740;6.784;2023-04-08T04:58:17;4.40;99.90
59301;DHT22;45073;52.740;6.784;2023-04-08T05:00:43;4.40;99.90
59301;DHT22;45073;52.740;6.784;2023-04-08T05:03:09;4.40;99.90
59301;DHT22;45073;52.740;6.784;2023-04-08T05:05:35;4.40;99.90
59301;DHT22;45073;52.740;6.784;2023-04-08T05:08:00;4.40;99.90
59301;DHT22;45073;52.740;6.784;2023-04-08T05:10:26;4.50;99.90
59301;DHT22;45073;52.740;6.784;2023-04-08T05:12:52;4.50;99.90
59301;DHT22;45073;52.740;6.784;2023-04-08T05:15:17;4.50;99.90
59301;DHT22;45073;52.740;6.784;2023-04-08T05:17:43;4.60;99.90
59301;DHT22;45073;52.740;6.784;2023-04-08T05:20:09;4.60;99.90
59301;DHT22;45073;52.740;6.784;2023-04-08T05:22:34;4.60;99.90
59301;DHT22;45073;52.740;6.784;2023-04-08T05:25:00;4.70;99.90
59301;DHT22;45073;52.740;6.784;2023-04-08T05:27:27;4.70;99.90
59301;DHT22;45073;52.740;6.784;2023-04-08T05:29:53;4.70;99.90
59301;DHT22;45073;52.740;6.784;2023-04-08T05:32:19;4.80;99.90
59301;DHT22;45073;52.740;6.784;2023-04-08T05:34:44;4.90;99.90
59301;DHT22;45073;52.740;6.784;2023-04-08T05:37:12;4.90;99.90
59301;DHT22;45073;52.740;6.784;2023-04-08T05:39:37;4.90;99.90
59301;DHT22;45073;52.740;6.784;2023-04-08T05:42:03;5.00;99.90
59301;DHT22;45073;52.740;6.784;2023-04-08T05:44:29;5.00;99.90
59301;DHT22;45073;52.740;6.784;2023-04-08T05:46:54;5.00;99.90
59301;DHT22;45073;52.740;6.784;2023-04-08T05:49:22;5.00;99.90
59301;DHT22;45073;52.740;6.784;2023-04-08T05:51:47;5.00;99.90
59301;DHT22;45073;52.740;6.784;2023-04-08T05:54:13;5.10;99.90
59301;DHT22;45073;52.740;6.784;2023-04-08T05:56:38;5.10;99.90
59301;DHT22;45073;52.740;6.784;2023-04-08T05:59:04;5.10;99.90
59301;DHT22;45073;52.740;6.784;2023-04-08T06:01:30;5.20;99.90
59301;DHT22;45073;52.740;6.784;2023-04-08T06:03:55;5.20;99.90
59301;DHT22;45073;52.740;6.784;2023-04-08T06:06:22;5.20;99.90
59301;DHT22;45073;52.740;6.784;2023-04-08T06:08:48;5.30;99.90
59301;DHT22;45073;52.740;6.784;2023-04-08T06:11:13;5.30;99.90
59301;DHT22;45073;52.740;6.784;2023-04-08T06:13:39;5.40;99.90
59301;DHT22;45073;52.740;6.784;2023-04-08T06:16:12;5.40;99.90
59301;DHT22;45073;52.740;6.784;2023-04-08T06:18:38;5.40;99.90
59301;DHT22;45073;52.740;6.784;2023-04-08T06:21:04;5.50;99.90
59301;DHT22;45073;52.740;6.784;2023-04-08T06:23:30;5.50;99.90
59301;DHT22;45073;52.740;6.784;2023-04-08T06:25:56;5.60;99.90
59301;DHT22;45073;52.740;6.784;2023-04-08T06:28:21;5.60;99.90
59301;DHT22;45073;52.740;6.784;2023-04-08T06:30:47;5.60;99.90
59301;DHT22;45073;52.740;6.784;2023-04-08T06:33:13;5.70;99.90
59301;DHT22;45073;52.740;6.784;2023-04-08T06:35:38;5.70;99.90
59301;DHT22;45073;52.740;6.784;2023-04-08T06:38:04;5.80;99.90
59301;DHT22;45073;52.740;6.784;2023-04-08T06:40:30;5.80;99.90
59301;DHT22;45073;52.740;6.784;2023-04-08T06:42:56;5.90;99.90
59301;DHT22;45073;52.740;6.784;2023-04-08T06:45:21;5.90;99.90
59301;DHT22;45073;52.740;6.784;2023-04-08T06:47:47;6.00;99.90
59301;DHT22;45073;52.740;6.784;2023-04-08T06:50:13;6.10;99.90
59301;DHT22;45073;52.740;6.784;2023-04-08T06:52:38;6.20;99.90
59301;DHT22;45073;52.740;6.784;2023-04-08T06:55:05;6.30;99.90
59301;DHT22;45073;52.740;6.784;2023-04-08T06:57:31;6.40;99.90
59301;DHT22;45073;52.740;6.784;2023-04-08T06:59:56;6.40;99.90
59301;DHT22;45073;52.740;6.784;2023-04-08T07:02:22;6.50;99.90
59301;DHT22;45073;52.740;6.784;2023-04-08T07:04:48;6.60;99.90
59301;DHT22;45073;52.740;6.784;2023-04-08T07:07:13;6.70;99.90
59301;DHT22;45073;52.740;6.784;2023-04-08T07:09:39;6.70;99.90
59301;DHT22;45073;52.740;6.784;2023-04-08T07:12:07;6.80;99.90
59301;DHT22;45073;52.740;6.784;2023-04-08T07:14:33;6.90;99.90
59301;DHT22;45073;52.740;6.784;2023-04-08T07:16:59;7.00;99.90
59301;DHT22;45073;52.740;6.784;2023-04-08T07:19:24;7.00;99.90
59301;DHT22;45073;52.740;6.784;2023-04-08T07:21:50;7.10;99.90
59301;DHT22;45073;52.740;6.784;2023-04-08T07:24:17;7.20;99.90
59301;DHT22;45073;52.740;6.784;2023-04-08T07:26:43;7.20;99.90
59301;DHT22;45073;52.740;6.784;2023-04-08T07:29:09;7.30;99.90
59301;DHT22;45073;52.740;6.784;2023-04-08T07:31:35;7.40;99.90
59301;DHT22;45073;52.740;6.784;2023-04-08T07:34:01;7.50;99.90
59301;DHT22;45073;52.740;6.784;2023-04-08T07:36:26;7.60;99.90
59301;DHT22;45073;52.740;6.784;2023-04-08T07:38:52;7.70;99.90
59301;DHT22;45073;52.740;6.784;2023-04-08T07:41:18;7.70;99.90
59301;DHT22;45073;52.740;6.784;2023-04-08T07:43:44;7.80;99.90
59301;DHT22;45073;52.740;6.784;2023-04-08T07:46:10;7.90;99.90
59301;DHT22;45073;52.740;6.784;2023-04-08T07:48:36;8.00;99.90
59301;DHT22;45073;52.740;6.784;2023-04-08T07:51:06;8.10;99.90
59301;DHT22;45073;52.740;6.784;2023-04-08T07:53:32;8.10;99.90
59301;DHT22;45073;52.740;6.784;2023-04-08T07:55:59;8.20;99.90
59301;DHT22;45073;52.740;6.784;2023-04-08T07:58:25;8.30;99.90
59301;DHT22;45073;52.740;6.784;2023-04-08T08:00:51;8.40;99.90
59301;DHT22;45073;52.740;6.784;2023-04-08T08:03:16;8.50;99.90
59301;DHT22;45073;52.740;6.784;2023-04-08T08:05:42;8.50;99.90
59301;DHT22;45073;52.740;6.784;2023-04-08T08:08:08;8.60;99.90
59301;DHT22;45073;52.740;6.784;2023-04-08T08:10:37;8.70;99.90
59301;DHT22;45073;52.740;6.784;2023-04-08T08:13:03;8.70;99.90
59301;DHT22;45073;52.740;6.784;2023-04-08T08:15:30;8.70;99.90
59301;DHT22;45073;52.740;6.784;2023-04-08T08:17:56;8.70;99.90
59301;DHT22;45073;52.740;6.784;2023-04-08T08:20:21;8.80;99.90
59301;DHT22;45073;52.740;6.784;2023-04-08T08:22:47;8.90;99.90
59301;DHT22;45073;52.740;6.784;2023-04-08T08:25:12;9.10;99.90
59301;DHT22;45073;52.740;6.784;2023-04-08T08:27:38;9.30;99.90
59301;DHT22;45073;52.740;6.784;2023-04-08T08:30:07;9.40;99.90
59301;DHT22;45073;52.740;6.784;2023-04-08T08:32:33;9.50;99.90
59301;DHT22;45073;52.740;6.784;2023-04-08T08:34:58;9.60;99.90
59301;DHT22;45073;52.740;6.784;2023-04-08T08:37:25;9.60;99.90
59301;DHT22;45073;52.740;6.784;2023-04-08T08:39:51;9.70;99.90
59301;DHT22;45073;52.740;6.784;2023-04-08T08:42:21;9.80;99.90
59301;DHT22;45073;52.740;6.784;2023-04-08T08:44:48;9.80;99.90
59301;DHT22;45073;52.740;6.784;2023-04-08T08:47:14;9.90;99.90
59301;DHT22;45073;52.740;6.784;2023-04-08T08:49:40;9.90;99.90
59301;DHT22;45073;52.740;6.784;2023-04-08T08:52:06;9.90;99.90
59301;DHT22;45073;52.740;6.784;2023-04-08T08:54:32;9.90;99.90
59301;DHT22;45073;52.740;6.784;2023-04-08T08:56:58;10.00;99.90
59301;DHT22;45073;52.740;6.784;2023-04-08T08:59:23;10.10;99.90
59301;DHT22;45073;52.740;6.784;2023-04-08T09:01:49;10.20;99.90
59301;DHT22;45073;52.740;6.784;2023-04-08T09:04:21;10.30;99.90
59301;DHT22;45073;52.740;6.784;2023-04-08T09:07:10;10.50;99.90
59301;DHT22;45073;52.740;6.784;2023-04-08T09:09:49;10.50;99.90
59301;DHT22;45073;52.740;6.784;2023-04-08T09:12:15;10.60;99.90
59301;DHT22;45073;52.740;6.784;2023-04-08T09:14:41;10.60;99.90
59301;DHT22;45073;52.740;6.784;2023-04-08T09:17:07;10.60;99.90
59301;DHT22;45073;52.740;6.784;2023-04-08T09:19:33;10.60;99.90
59301;DHT22;45073;52.740;6.784;2023-04-08T09:22:11;10.60;99.90
59301;DHT22;45073;52.740;6.784;2023-04-08T09:24:37;10.50;99.90
59301;DHT22;45073;52.740;6.784;2023-04-08T09:27:03;10.50;99.90
59301;DHT22;45073;52.740;6.784;2023-04-08T09:29:29;10.60;99.90
59301;DHT22;45073;52.740;6.784;2023-04-08T09:31:59;10.60;99.90
59301;DHT22;45073;52.740;6.784;2023-04-08T09:34:27;10.70;99.90
59301;DHT22;45073;52.740;6.784;2023-04-08T09:36:53;10.90;99.90
59301;DHT22;45073;52.740;6.784;2023-04-08T09:39:19;11.10;99.90
59301;DHT22;45073;52.740;6.784;2023-04-08T09:41:48;11.20;99.90
59301;DHT22;45073;52.740;6.784;2023-04-08T09:44:14;11.30;99.90
59301;DHT22;45073;52.740;6.784;2023-04-08T09:46:57;11.30;99.90
59301;DHT22;45073;52.740;6.784;2023-04-08T09:49:30;11.40;99.90
59301;DHT22;45073;52.740;6.784;2023-04-08T09:52:10;11.40;99.90
59301;DHT22;45073;52.740;6.784;2023-04-08T09:55:02;11.50;99.90
59301;DHT22;45073;52.740;6.784;2023-04-08T09:57:54;11.60;99.90
59301;DHT22;45073;52.740;6.784;2023-04-08T10:00:34;11.60;99.90
59301;DHT22;45073;52.740;6.784;2023-04-08T10:03:09;11.70;99.90
59301;DHT22;45073;52.740;6.784;2023-04-08T10:05:40;11.80;99.90
59301;DHT22;45073;52.740;6.784;2023-04-08T10:08:06;12.00;99.90
59301;DHT22;45073;52.740;6.784;2023-04-08T10:10:39;12.00;99.90
59301;DHT22;45073;52.740;6.784;2023-04-08T10:13:06;12.10;99.90
59301;DHT22;45073;52.740;6.784;2023-04-08T10:15:33;12.10;99.90
59301;DHT22;45073;52.740;6.784;2023-04-08T10:20:40;12.10;99.90
59301;DHT22;45073;52.740;6.784;2023-04-08T10:23:14;12.10;99.90
59301;DHT22;45073;52.740;6.784;2023-04-08T10:25:41;12.10;99.90
59301;DHT22;45073;52.740;6.784;2023-04-08T10:30:40;12.10;99.90
59301;DHT22;45073;52.740;6.784;2023-04-08T10:33:33;12.10;99.90
59301;DHT22;45073;52.740;6.784;2023-04-08T10:36:10;12.10;99.90
59301;DHT22;45073;52.740;6.784;2023-04-08T10:38:37;12.00;99.90
59301;DHT22;45073;52.740;6.784;2023-04-08T10:41:03;12.00;99.90
59301;DHT22;45073;52.740;6.784;2023-04-08T10:43:35;12.00;99.90
59301;DHT22;45073;52.740;6.784;2023-04-08T10:46:02;11.90;99.90
59301;DHT22;45073;52.740;6.784;2023-04-08T10:48:28;11.80;99.90
59301;DHT22;45073;52.740;6.784;2023-04-08T10:51:03;11.80;99.90
59301;DHT22;45073;52.740;6.784;2023-04-08T10:53:39;11.90;99.90
59301;DHT22;45073;52.740;6.784;2023-04-08T10:56:05;12.00;99.90
59301;DHT22;45073;52.740;6.784;2023-04-08T10:58:31;12.00;99.90
59301;DHT22;45073;52.740;6.784;2023-04-08T11:01:02;12.10;99.90
59301;DHT22;45073;52.740;6.784;2023-04-08T11:03:31;12.10;99.90
59301;DHT22;45073;52.740;6.784;2023-04-08T11:05:59;12.10;99.90
59301;DHT22;45073;52.740;6.784;2023-04-08T11:08:32;12.30;99.90
59301;DHT22;45073;52.740;6.784;2023-04-08T11:10:58;12.30;99.90
59301;DHT22;45073;52.740;6.784;2023-04-08T11:13:27;12.30;99.90
59301;DHT22;45073;52.740;6.784;2023-04-08T11:15:54;12.30;99.90
59301;DHT22;45073;52.740;6.784;2023-04-08T11:18:21;12.20;99.90
59301;DHT22;45073;52.740;6.784;2023-04-08T11:20:49;12.20;99.90
59301;DHT22;45073;52.740;6.784;2023-04-08T11:23:16;12.10;99.90
59301;DHT22;45073;52.740;6.784;2023-04-08T11:25:43;12.10;99.90
59301;DHT22;45073;52.740;6.784;2023-04-08T11:28:10;12.10;99.90
59301;DHT22;45073;52.740;6.784;2023-04-08T11:30:38;12.20;99.90
59301;DHT22;45073;52.740;6.784;2023-04-08T11:33:05;12.20;99.90
59301;DHT22;45073;52.740;6.784;2023-04-08T11:35:31;12.20;99.90
59301;DHT22;45073;52.740;6.784;2023-04-08T11:37:57;12.20;99.90
59301;DHT22;45073;52.740;6.784;2023-04-08T11:40:23;12.30;99.90
59301;DHT22;45073;52.740;6.784;2023-04-08T11:42:49;12.20;99.90
59301;DHT22;45073;52.740;6.784;2023-04-08T11:45:17;12.20;99.90
59301;DHT22;45073;52.740;6.784;2023-04-08T11:47:43;12.20;99.90
59301;DHT22;45073;52.740;6.784;2023-04-08T11:50:10;12.20;99.90
59301;DHT22;45073;52.740;6.784;2023-04-08T11:52:49;12.30;99.90
59301;DHT22;45073;52.740;6.784;2023-04-08T11:55:27;12.30;99.90
59301;DHT22;45073;52.740;6.784;2023-04-08T11:57:53;12.30;99.90
59301;DHT22;45073;52.740;6.784;2023-04-08T12:00:20;12.30;99.90
59301;DHT22;45073;52.740;6.784;2023-04-08T12:02:46;12.30;99.90
59301;DHT22;45073;52.740;6.784;2023-04-08T12:05:14;12.30;99.90
59301;DHT22;45073;52.740;6.784;2023-04-08T12:07:40;12.30;99.90
59301;DHT22;45073;52.740;6.784;2023-04-08T12:10:07;12.30;99.90
59301;DHT22;45073;52.740;6.784;2023-04-08T12:12:33;12.30;99.90
59301;DHT22;45073;52.740;6.784;2023-04-08T12:14:58;12.20;99.90
59301;DHT22;45073;52.740;6.784;2023-04-08T12:17:24;12.20;99.90
59301;DHT22;45073;52.740;6.784;2023-04-08T12:19:49;12.10;99.90
59301;DHT22;45073;52.740;6.784;2023-04-08T12:22:15;12.10;99.90
59301;DHT22;45073;52.740;6.784;2023-04-08T12:24:41;12.10;99.90
59301;DHT22;45073;52.740;6.784;2023-04-08T12:27:06;12.20;99.90
59301;DHT22;45073;52.740;6.784;2023-04-08T12:29:32;12.10;99.90
59301;DHT22;45073;52.740;6.784;2023-04-08T12:31:58;12.10;99.90
59301;DHT22;45073;52.740;6.784;2023-04-08T12:34:24;12.10;99.90
59301;DHT22;45073;52.740;6.784;2023-04-08T12:36:50;12.10;99.90
59301;DHT22;45073;52.740;6.784;2023-04-08T12:39:15;12.10;99.90
59301;DHT22;45073;52.740;6.784;2023-04-08T12:41:41;12.10;99.90
59301;DHT22;45073;52.740;6.784;2023-04-08T12:44:07;12.10;99.90
59301;DHT22;45073;52.740;6.784;2023-04-08T12:46:32;12.10;99.90
59301;DHT22;45073;52.740;6.784;2023-04-08T12:48:58;12.10;99.90
59301;DHT22;45073;52.740;6.784;2023-04-08T12:51:25;12.10;99.90
59301;DHT22;45073;52.740;6.784;2023-04-08T12:53:51;12.10;99.90
59301;DHT22;45073;52.740;6.784;2023-04-08T12:56:16;12.10;99.90
59301;DHT22;45073;52.740;6.784;2023-04-08T12:58:42;12.10;99.90
59301;DHT22;45073;52.740;6.784;2023-04-08T13:01:08;12.10;99.90
59301;DHT22;45073;52.740;6.784;2023-04-08T13:03:34;12.10;99.90
59301;DHT22;45073;52.740;6.784;2023-04-08T13:06:00;12.10;99.90
59301;DHT22;45073;52.740;6.784;2023-04-08T13:08:26;12.00;99.90
59301;DHT22;45073;52.740;6.784;2023-04-08T13:10:52;12.00;99.90
59301;DHT22;45073;52.740;6.784;2023-04-08T13:13:19;12.00;99.90
59301;DHT22;45073;52.740;6.784;2023-04-08T13:15:44;12.00;99.90
59301;DHT22;45073;52.740;6.784;2023-04-08T13:18:10;12.00;99.90
59301;DHT22;45073;52.740;6.784;2023-04-08T13:20:35;12.00;99.90
59301;DHT22;45073;52.740;6.784;2023-04-08T13:23:01;12.00;99.90
59301;DHT22;45073;52.740;6.784;2023-04-08T13:25:27;12.00;99.90
59301;DHT22;45073;52.740;6.784;2023-04-08T13:27:52;12.00;99.90
59301;DHT22;45073;52.740;6.784;2023-04-08T13:30:18;12.00;99.90
59301;DHT22;45073;52.740;6.784;2023-04-08T13:32:44;12.00;99.90
59301;DHT22;45073;52.740;6.784;2023-04-08T13:35:10;12.00;99.90
59301;DHT22;45073;52.740;6.784;2023-04-08T13:37:36;12.00;99.90
59301;DHT22;45073;52.740;6.784;2023-04-08T13:40:01;12.00;99.90
59301;DHT22;45073;52.740;6.784;2023-04-08T13:42:27;12.00;99.90
59301;DHT22;45073;52.740;6.784;2023-04-08T13:44:59;12.00;99.90
59301;DHT22;45073;52.740;6.784;2023-04-08T13:47:24;12.00;99.90
59301;DHT22;45073;52.740;6.784;2023-04-08T13:49:51;12.00;99.90
59301;DHT22;45073;52.740;6.784;2023-04-08T13:52:18;12.00;99.90
59301;DHT22;45073;52.740;6.784;2023-04-08T13:54:43;12.00;99.90
59301;DHT22;45073;52.740;6.784;2023-04-08T13:57:09;12.00;99.90
59301;DHT22;45073;52.740;6.784;2023-04-08T13:59:35;12.00;99.90
59301;DHT22;45073;52.740;6.784;2023-04-08T14:02:00;12.00;99.90
59301;DHT22;45073;52.740;6.784;2023-04-08T14:04:26;12.00;99.90
59301;DHT22;45073;52.740;6.784;2023-04-08T14:06:52;12.00;99.90
59301;DHT22;45073;52.740;6.784;2023-04-08T14:09:18;12.00;99.90
59301;DHT22;45073;52.740;6.784;2023-04-08T14:11:45;12.10;99.90
59301;DHT22;45073;52.740;6.784;2023-04-08T14:14:10;12.10;99.90
59301;DHT22;45073;52.740;6.784;2023-04-08T14:16:36;12.10;99.90
59301;DHT22;45073;52.740;6.784;2023-04-08T14:19:02;12.10;99.90
59301;DHT22;45073;52.740;6.784;2023-04-08T14:21:29;12.10;99.90
59301;DHT22;45073;52.740;6.784;2023-04-08T14:23:56;12.20;99.90
59301;DHT22;45073;52.740;6.784;2023-04-08T14:26:22;12.20;99.90
59301;DHT22;45073;52.740;6.784;2023-04-08T14:28:48;12.30;99.90
59301;DHT22;45073;52.740;6.784;2023-04-08T14:31:13;12.20;99.90
59301;DHT22;45073;52.740;6.784;2023-04-08T14:33:40;12.20;99.90
59301;DHT22;45073;52.740;6.784;2023-04-08T14:36:07;12.20;99.90
59301;DHT22;45073;52.740;6.784;2023-04-08T14:38:32;12.20;99.90
59301;DHT22;45073;52.740;6.784;2023-04-08T14:40:58;12.30;99.90
59301;DHT22;45073;52.740;6.784;2023-04-08T14:43:24;12.30;99.90
59301;DHT22;45073;52.740;6.784;2023-04-08T14:45:50;12.30;99.90
59301;DHT22;45073;52.740;6.784;2023-04-08T14:48:18;12.20;99.90
59301;DHT22;45073;52.740;6.784;2023-04-08T14:50:44;12.20;99.90
59301;DHT22;45073;52.740;6.784;2023-04-08T14:53:10;12.10;99.90
59301;DHT22;45073;52.740;6.784;2023-04-08T14:55:36;12.10;99.90
59301;DHT22;45073;52.740;6.784;2023-04-08T14:58:03;12.10;99.90
59301;DHT22;45073;52.740;6.784;2023-04-08T15:00:29;12.10;99.90
59301;DHT22;45073;52.740;6.784;2023-04-08T15:02:54;12.20;99.90
59301;DHT22;45073;52.740;6.784;2023-04-08T15:05:20;12.20;99.90
59301;DHT22;45073;52.740;6.784;2023-04-08T15:07:47;12.20;99.90
59301;DHT22;45073;52.740;6.784;2023-04-08T15:10:13;12.20;99.90
59301;DHT22;45073;52.740;6.784;2023-04-08T15:12:38;12.20;99.90
59301;DHT22;45073;52.740;6.784;2023-04-08T15:15:04;12.20;99.90
59301;DHT22;45073;52.740;6.784;2023-04-08T15:17:30;12.20;99.90
59301;DHT22;45073;52.740;6.784;2023-04-08T15:19:56;12.30;99.90
59301;DHT22;45073;52.740;6.784;2023-04-08T15:22:23;12.30;99.90
59301;DHT22;45073;52.740;6.784;2023-04-08T15:24:48;12.20;99.90
59301;DHT22;45073;52.740;6.784;2023-04-08T15:27:14;12.20;99.90
59301;DHT22;45073;52.740;6.784;2023-04-08T15:29:40;12.20;99.90
59301;DHT22;45073;52.740;6.784;2023-04-08T15:32:06;12.30;99.90
59301;DHT22;45073;52.740;6.784;2023-04-08T15:34:32;12.20;99.90
59301;DHT22;45073;52.740;6.784;2023-04-08T15:36:58;12.30;99.90
59301;DHT22;45073;52.740;6.784;2023-04-08T15:39:24;12.30;99.90
59301;DHT22;45073;52.740;6.784;2023-04-08T15:41:49;12.20;99.90
59301;DHT22;45073;52.740;6.784;2023-04-08T15:44:15;12.20;99.90
59301;DHT22;45073;52.740;6.784;2023-04-08T15:46:41;12.20;99.90
59301;DHT22;45073;52.740;6.784;2023-04-08T15:49:07;12.10;99.90